Chiniot Weather



Chiniot's Current Weather

Temprature 20.65o few clouds

few clouds

Rain: 0 %

Min Temprature20.65o
Max Temprature20.65o
Humidity34
Wind Speed0.86 m/h
Sun Rise05:46:20
Sun Set18:32:27
Current Time: 09-Apr-2020 01:34:25
Lat/Lon: 31.72, 72.98




Chiniot's Geo Location



Chiniot's Weather Forecast

Time Overall Temp Min Temp Max Temp Humidity Wind Speed Rain
09-Apr-2020 (Thu)
02:00:00 few clouds 20.650 20.650 20.650 34 0.86 m/h 0 %
05:00:00 broken clouds 19.780 19.780 19.780 37 1.29 m/h 0 %
08:00:00 broken clouds 24.170 24.170 24.170 29 0.92 m/h 0 %
11:00:00 broken clouds 31.240 31.240 31.240 18 2.03 m/h 0 %
14:00:00 overcast clouds 33.570 33.570 33.570 16 2.87 m/h 0 %
17:00:00 overcast clouds 33.430 33.430 33.430 15 1.83 m/h 0 %
20:00:00 overcast clouds 27.270 27.270 27.270 22 1.43 m/h 0 %
23:00:00 overcast clouds 24.240 24.240 24.240 29 1.26 m/h 0 %
10-Apr-2020 (Fri)
02:00:00 light rain 20.760 20.760 20.760 46 3.91 m/h 83 %
05:00:00 light rain 19.550 19.550 19.550 49 2.7 m/h 19 %
08:00:00 clear sky 23.590 23.590 23.590 40 2.59 m/h 0 %
11:00:00 clear sky 31.200 31.200 31.200 23 2.1 m/h 0 %
14:00:00 clear sky 34.630 34.630 34.630 18 1.9 m/h 0 %
17:00:00 clear sky 33.970 33.970 33.970 18 3.32 m/h 0 %
20:00:00 clear sky 27.210 27.210 27.210 32 4.48 m/h 0 %
23:00:00 clear sky 24.380 24.380 24.380 39 3.54 m/h 0 %
11-Apr-2020 (Sat)
02:00:00 broken clouds 22.960 22.960 22.960 41 2.26 m/h 0 %
05:00:00 scattered clouds 22.110 22.110 22.110 39 1.55 m/h 0 %
08:00:00 overcast clouds 26.470 26.470 26.470 29 2.64 m/h 0 %
11:00:00 broken clouds 33.600 33.600 33.600 18 2.08 m/h 0 %
14:00:00 broken clouds 36.780 36.780 36.780 13 1.75 m/h 0 %
17:00:00 broken clouds 35.670 35.670 35.670 14 4.45 m/h 0 %
20:00:00 broken clouds 28.860 28.860 28.860 23 2.66 m/h 0 %
23:00:00 broken clouds 26.460 26.460 26.460 27 1.88 m/h 0 %
12-Apr-2020 (Sun)
02:00:00 broken clouds 25.300 25.300 25.300 28 2.14 m/h 0 %
05:00:00 broken clouds 24.120 24.120 24.120 29 1.7 m/h 0 %
08:00:00 broken clouds 29.220 29.220 29.220 21 1.5 m/h 0 %
11:00:00 broken clouds 35.480 35.480 35.480 14 3.75 m/h 0 %
14:00:00 overcast clouds 37.490 37.490 37.490 13 3.74 m/h 0 %
17:00:00 overcast clouds 36.190 36.190 36.190 14 3.72 m/h 0 %
20:00:00 overcast clouds 29.670 29.670 29.670 22 2.1 m/h 0 %
23:00:00 broken clouds 27.240 27.240 27.240 23 1.37 m/h 0 %
13-Apr-2020 (Mon)
02:00:00 broken clouds 25.930 25.930 25.930 25 1.45 m/h 0 %
05:00:00 broken clouds 24.860 24.860 24.860 26 1.95 m/h 0 %
08:00:00 broken clouds 30.350 30.350 30.350 19 0.46 m/h 0 %
11:00:00 scattered clouds 37.770 37.770 37.770 11 1.36 m/h 0 %
14:00:00 clear sky 40.240 40.240 40.240 10 3.6 m/h 0 %
17:00:00 clear sky 39.270 39.270 39.270 11 3.65 m/h 0 %
20:00:00 clear sky 32.220 32.220 32.220 17 1.43 m/h 0 %
23:00:00 clear sky 29.870 29.870 29.870 20 3.32 m/h 0 %


Chiniot's Tourist Spots

Historical Places in Chiniot

Famous Cities (61)